Time,TemperatureF,DewpointF,PressureIn,WindDirection,WindDirectionDegrees,WindSpeedMPH,WindSpeedGustMPH,Humidity,HourlyPrecipIn,Conditions,Clouds,dailyrainin,SolarRadiationWatts/m^2,SoftwareType,DateUTC
2013-07-27 00:02:00,73.0,65.0,30.05,SW,216,0.0,1.0,76,0.00,,,0.00,0.000000,,2013-07-27 04:02:00,
2013-07-27 00:12:00,72.0,64.0,30.05,SSW,204,0.0,2.0,77,0.00,,,0.00,0.000000,,2013-07-27 04:12:00,
2013-07-27 00:43:00,72.0,66.0,30.04,SSW,211,1.0,5.0,81,0.00,,,0.00,0.000000,,2013-07-27 04:43:00,
2013-07-27 00:53:00,72.0,66.0,30.04,SSW,200,0.0,5.0,82,0.00,,,0.00,0.000000,,2013-07-27 04:53:00,
2013-07-27 01:02:00,71.0,65.0,30.04,South,190,1.0,6.0,82,0.00,,,0.00,0.000000,,2013-07-27 05:02:00,
2013-07-27 01:32:00,71.0,66.0,30.04,SSW,213,0.0,6.0,83,0.00,,,0.00,0.000000,,2013-07-27 05:32:00,
2013-07-27 01:43:00,71.0,66.0,30.03,SSW,205,0.0,4.0,84,0.00,,,0.00,0.000000,,2013-07-27 05:43:00,
2013-07-27 01:52:00,70.0,65.0,30.03,SSW,205,0.0,1.0,85,0.00,,,0.00,0.000000,,2013-07-27 05:52:00,
2013-07-27 02:02:00,70.0,65.0,30.03,SSW,206,0.0,3.0,85,0.00,,,0.00,0.000000,,2013-07-27 06:02:00,
2013-07-27 02:33:00,70.0,66.0,30.02,SSW,205,0.0,0.0,87,0.00,,,0.00,0.000000,,2013-07-27 06:33:00,
2013-07-27 03:02:00,69.0,65.0,30.02,SSE,149,0.0,0.0,87,0.00,,,0.00,0.000000,,2013-07-27 07:02:00,
2013-07-27 03:34:00,69.0,65.0,30.01,SSW,203,0.0,1.0,88,0.00,,,0.00,0.000000,,2013-07-27 07:34:00,
2013-07-27 03:44:00,69.0,65.0,30.01,SSW,203,0.0,0.0,87,0.00,,,0.00,0.000000,,2013-07-27 07:44:00,
2013-07-27 03:52:00,69.0,65.0,30.01,SSW,203,0.0,0.0,88,0.00,,,0.00,0.000000,,2013-07-27 07:52:00,
2013-07-27 04:02:00,68.0,64.0,30.01,SSW,203,0.0,0.0,88,0.00,,,0.00,0.000000,,2013-07-27 08:02:00,
2013-07-27 04:43:00,68.0,65.0,30.01,SSW,202,0.0,0.0,90,0.00,,,0.00,0.000000,,2013-07-27 08:43:00,
2013-07-27 04:53:00,68.0,65.0,30.01,SSW,202,0.0,0.0,90,0.00,,,0.00,0.000000,,2013-07-27 08:53:00,
2013-07-27 05:02:00,68.0,65.0,30.01,SSW,202,0.0,0.0,90,0.00,,,0.00,0.000000,,2013-07-27 09:02:00,
2013-07-27 05:52:00,68.0,65.0,30.01,SSW,201,0.0,0.0,91,0.00,,,0.00,0.000000,,2013-07-27 09:52:00,
2013-07-27 06:02:00,68.0,65.0,30.01,SSW,200,0.0,0.0,91,0.00,,,0.00,0.000000,,2013-07-27 10:02:00,
2013-07-27 06:12:00,68.0,65.0,30.01,SSW,201,0.0,0.0,91,0.00,,,0.00,0.000000,,2013-07-27 10:12:00,
2013-07-27 06:32:00,68.0,65.0,30.01,SSW,200,0.0,0.0,91,0.00,,,0.00,12.000000,,2013-07-27 10:32:00,
2013-07-27 07:02:00,69.0,66.0,30.01,SSW,194,0.0,1.0,91,0.00,,,0.00,51.000000,,2013-07-27 11:02:00,
2013-07-27 07:44:00,69.0,66.0,30.01,SSE,167,0.0,1.0,90,0.00,,,0.00,58.000000,,2013-07-27 11:44:00,
2013-07-27 07:52:00,69.0,66.0,30.01,SSE,167,0.0,1.0,90,0.00,,,0.00,67.000000,,2013-07-27 11:52:00,
2013-07-27 08:03:00,70.0,67.0,30.01,SSE,159,0.0,1.0,89,0.00,,,0.00,88.000000,,2013-07-27 12:03:00,
2013-07-27 08:43:00,71.0,67.0,30.02,SSW,200,0.0,1.0,88,0.00,,,0.00,88.000000,,2013-07-27 12:43:00,
2013-07-27 08:52:00,71.0,67.0,30.03,SSW,209,2.0,7.0,87,0.00,,,0.00,77.000000,,2013-07-27 12:52:00,
2013-07-27 09:02:00,71.0,67.0,30.03,SSW,204,1.0,8.0,87,0.00,,,0.00,74.000000,,2013-07-27 13:02:00,
2013-07-27 09:44:00,72.0,67.0,30.03,SSW,196,1.0,8.0,85,0.00,,,0.00,165.000000,,2013-07-27 13:44:00,
2013-07-27 10:02:00,74.0,68.0,30.03,SSW,205,1.0,9.0,83,0.00,,,0.00,155.000000,,2013-07-27 14:02:00,
2013-07-27 10:32:00,76.0,69.0,30.02,South,191,3.0,8.0,78,0.00,,,0.00,218.000000,,2013-07-27 14:32:00,
2013-07-27 10:54:00,76.0,69.0,30.03,SSW,209,2.0,9.0,78,0.00,,,0.00,301.000000,,2013-07-27 14:54:00,
2013-07-27 11:02:00,77.0,69.0,30.02,SE,146,0.0,9.0,77,0.00,,,0.00,315.000000,,2013-07-27 15:02:00,
2013-07-27 11:12:00,77.0,69.0,30.02,SW,222,0.0,8.0,77,0.00,,,0.00,308.000000,,2013-07-27 15:12:00,
2013-07-27 11:22:00,77.0,69.0,30.02,South,182,0.0,8.0,76,0.00,,,0.00,299.000000,,2013-07-27 15:22:00,
2013-07-27 11:44:00,79.0,70.0,30.01,SW,226,0.0,10.0,74,0.00,,,0.00,872.000000,,2013-07-27 15:44:00,
2013-07-27 11:53:00,79.0,70.0,30.01,SSW,193,2.0,11.0,73,0.00,,,0.00,348.000000,,2013-07-27 15:53:00,
2013-07-27 12:02:00,79.0,70.0,30.01,SSW,206,1.0,11.0,73,0.00,,,0.00,195.000000,,2013-07-27 16:02:00,
2013-07-27 12:33:00,81.0,71.0,30.00,SSE,162,2.0,9.0,71,0.00,,,0.00,833.000000,,2013-07-27 16:33:00,
2013-07-27 12:43:00,82.0,71.0,30.00,SSW,200,5.0,17.0,70,0.00,,,0.00,937.000000,,2013-07-27 16:43:00,
2013-07-27 12:53:00,82.0,71.0,30.00,SW,215,6.0,17.0,69,0.00,,,0.00,947.000000,,2013-07-27 16:53:00,
2013-07-27 13:02:00,81.0,70.0,29.99,SW,225,2.0,14.0,69,0.00,,,0.00,622.000000,,2013-07-27 17:02:00,
2013-07-27 13:12:00,81.0,69.0,29.99,SW,214,5.0,13.0,68,0.00,,,0.00,420.000000,,2013-07-27 17:12:00,
2013-07-27 13:23:00,83.0,71.0,29.98,SSW,205,2.0,9.0,67,0.00,,,0.00,784.000000,,2013-07-27 17:23:00,
2013-07-27 13:32:00,83.0,71.0,29.98,SSW,201,0.0,11.0,68,0.00,,,0.00,738.000000,,2013-07-27 17:32:00,
2013-07-27 13:43:00,84.0,71.0,29.97,ESE,106,1.0,7.0,65,0.00,,,0.00,747.000000,,2013-07-27 17:43:00,
2013-07-27 13:53:00,82.0,70.0,29.97,SE,125,2.0,10.0,67,0.00,,,0.00,388.000000,,2013-07-27 17:53:00,
2013-07-27 14:03:00,83.0,71.0,29.96,SE,146,0.0,8.0,67,0.00,,,0.00,443.000000,,2013-07-27 18:03:00,
2013-07-27 14:22:00,84.0,71.0,29.95,SW,226,2.0,11.0,66,0.00,,,0.00,1044.000000,,2013-07-27 18:22:00,
2013-07-27 14:33:00,83.0,71.0,29.95,SSW,209,1.0,11.0,67,0.00,,,0.00,260.000000,,2013-07-27 18:33:00,
2013-07-27 14:43:00,83.0,70.0,29.95,SSE,165,2.0,7.0,65,0.00,,,0.00,710.000000,,2013-07-27 18:43:00,
2013-07-27 14:53:00,82.0,69.0,29.95,SSW,209,4.0,14.0,66,0.00,,,0.00,740.000000,,2013-07-27 18:53:00,
2013-07-27 15:02:00,82.0,69.0,29.95,SW,226,2.0,10.0,65,0.00,,,0.00,302.000000,,2013-07-27 19:02:00,
2013-07-27 15:12:00,82.0,69.0,29.94,South,191,3.0,12.0,65,0.00,,,0.00,552.000000,,2013-07-27 19:12:00,
2013-07-27 15:23:00,83.0,70.0,29.94,SSW,206,1.0,12.0,66,0.00,,,0.00,577.000000,,2013-07-27 19:23:00,
2013-07-27 15:32:00,82.0,69.0,29.94,South,183,5.0,10.0,65,0.00,,,0.00,589.000000,,2013-07-27 19:32:00,
2013-07-27 15:43:00,84.0,70.0,29.93,SSW,206,2.0,12.0,62,0.00,,,0.00,795.000000,,2013-07-27 19:43:00,
2013-07-27 15:53:00,85.0,71.0,29.92,South,189,1.0,10.0,63,0.00,,,0.00,425.000000,,2013-07-27 19:53:00,
2013-07-27 16:02:00,84.0,70.0,29.92,SW,219,3.0,10.0,62,0.00,,,0.00,475.000000,,2013-07-27 20:02:00,
2013-07-27 16:12:00,84.0,71.0,29.92,SSW,197,0.0,10.0,65,0.00,,,0.00,179.000000,,2013-07-27 20:12:00,
2013-07-27 16:23:00,83.0,71.0,29.91,SSE,153,0.0,10.0,68,0.00,,,0.00,392.000000,,2013-07-27 20:23:00,
2013-07-27 16:43:00,81.0,69.0,29.92,SSW,196,0.0,8.0,68,0.00,,,0.00,44.000000,,2013-07-27 20:43:00,
2013-07-27 16:52:00,80.0,68.0,29.93,West,271,3.0,10.0,66,0.00,,,0.00,7.000000,,2013-07-27 20:52:00,
2013-07-27 17:03:00,78.0,67.0,29.94,SW,236,1.0,12.0,70,0.00,,,0.00,7.000000,,2013-07-27 21:03:00,
2013-07-27 17:43:00,71.0,69.0,29.96,NW,322,0.0,1.0,94,0.17,,,0.17,76.000000,,2013-07-27 21:43:00,
2013-07-27 17:52:00,71.0,69.0,29.96,WSW,252,0.0,6.0,94,0.17,,,0.17,111.000000,,2013-07-27 21:52:00,
2013-07-27 18:02:00,71.0,69.0,29.95,SSW,208,1.0,4.0,95,0.17,,,0.17,102.000000,,2013-07-27 22:02:00,
2013-07-27 18:12:00,70.0,68.0,29.94,WSW,246,0.0,1.0,95,0.16,,,0.17,47.000000,,2013-07-27 22:12:00,
2013-07-27 18:22:00,71.0,70.0,29.93,WSW,245,0.0,0.0,96,0.04,,,0.17,23.000000,,2013-07-27 22:22:00,
2013-07-27 18:33:00,70.0,69.0,29.93,WSW,245,0.0,0.0,96,0.02,,,0.17,35.000000,,2013-07-27 22:33:00,
2013-07-27 18:43:00,71.0,70.0,29.93,WSW,245,0.0,0.0,96,0.00,,,0.17,47.000000,,2013-07-27 22:43:00,
2013-07-27 18:53:00,71.0,70.0,29.93,WSW,245,0.0,0.0,96,0.00,,,0.17,44.000000,,2013-07-27 22:53:00,
2013-07-27 19:02:00,71.0,70.0,29.94,WSW,245,0.0,0.0,96,0.00,,,0.17,40.000000,,2013-07-27 23:02:00,
2013-07-27 19:12:00,71.0,70.0,29.94,WSW,245,0.0,0.0,96,0.00,,,0.17,26.000000,,2013-07-27 23:12:00,
2013-07-27 19:22:00,71.0,70.0,29.94,South,186,0.0,0.0,96,0.00,,,0.17,35.000000,,2013-07-27 23:22:00,
2013-07-27 19:32:00,71.0,70.0,29.94,SSW,194,0.0,0.0,97,0.00,,,0.17,37.000000,,2013-07-27 23:32:00,
2013-07-27 19:44:00,71.0,70.0,29.94,South,188,0.0,0.0,97,0.00,,,0.17,33.000000,,2013-07-27 23:44:00,
2013-07-27 19:52:00,70.0,69.0,29.94,South,189,0.0,0.0,97,0.00,,,0.17,19.000000,,2013-07-27 23:52:00,
2013-07-27 20:02:00,70.0,69.0,29.94,South,189,0.0,0.0,97,0.00,,,0.17,16.000000,,2013-07-28 00:02:00,
2013-07-27 20:12:00,70.0,69.0,29.95,South,188,0.0,0.0,97,0.00,,,0.17,9.000000,,2013-07-28 00:12:00,
2013-07-27 20:23:00,70.0,69.0,29.95,South,189,0.0,0.0,97,0.00,,,0.17,9.000000,,2013-07-28 00:23:00,
2013-07-27 20:32:00,70.0,69.0,29.95,South,185,0.0,0.0,97,0.00,,,0.17,5.000000,,2013-07-28 00:32:00,
2013-07-27 20:53:00,70.0,69.0,29.95,SE,129,0.0,7.0,97,0.01,,,0.18,0.000000,,2013-07-28 00:53:00,
2013-07-27 21:02:00,70.0,69.0,29.94,SE,144,0.0,0.0,97,0.01,,,0.18,0.000000,,2013-07-28 01:02:00,
2013-07-27 21:12:00,70.0,69.0,29.93,SE,142,0.0,0.0,97,0.01,,,0.18,0.000000,,2013-07-28 01:12:00,
2013-07-27 21:23:00,70.0,69.0,29.94,SE,142,0.0,0.0,97,0.01,,,0.18,0.000000,,2013-07-28 01:23:00,
2013-07-27 21:32:00,70.0,69.0,29.93,SE,143,0.0,0.0,97,0.01,,,0.18,0.000000,,2013-07-28 01:32:00,
2013-07-27 21:43:00,70.0,69.0,29.93,SE,144,0.0,0.0,97,0.01,,,0.18,0.000000,,2013-07-28 01:43:00,
2013-07-27 21:53:00,70.0,69.0,29.94,SE,143,0.0,0.0,97,0.00,,,0.18,0.000000,,2013-07-28 01:53:00,
2013-07-27 22:03:00,70.0,69.0,29.94,SE,144,0.0,0.0,97,0.00,,,0.18,0.000000,,2013-07-28 02:03:00,
2013-07-27 22:12:00,70.0,69.0,29.93,SE,144,0.0,0.0,97,0.00,,,0.18,0.000000,,2013-07-28 02:12:00,
2013-07-27 22:22:00,70.0,69.0,29.93,SE,143,0.0,0.0,97,0.00,,,0.18,0.000000,,2013-07-28 02:22:00,
2013-07-27 22:32:00,70.0,69.0,29.93,SE,144,0.0,0.0,97,0.00,,,0.18,0.000000,,2013-07-28 02:32:00,
2013-07-27 22:53:00,70.0,69.0,29.93,SE,144,0.0,0.0,97,0.00,,,0.18,0.000000,,2013-07-28 02:53:00,
2013-07-27 23:03:00,70.0,69.0,29.92,SE,136,0.0,0.0,97,0.00,,,0.18,0.000000,,2013-07-28 03:03:00,
2013-07-27 23:12:00,70.0,69.0,29.93,South,179,0.0,1.0,97,0.00,,,0.18,0.000000,,2013-07-28 03:12:00,
2013-07-27 23:22:00,71.0,70.0,29.93,South,178,0.0,3.0,97,0.00,,,0.18,0.000000,,2013-07-28 03:22:00,
2013-07-27 23:32:00,70.0,69.0,29.93,SSW,200,2.0,5.0,97,0.01,,,0.19,0.000000,,2013-07-28 03:32:00,
2013-07-27 23:42:00,70.0,69.0,29.93,SSW,202,1.0,6.0,97,0.04,,,0.22,0.000000,,2013-07-28 03:42:00,
2013-07-27 23:53:00,70.0,69.0,29.94,SSW,205,4.0,9.0,97,0.07,,,0.25,0.000000,,2013-07-28 03:53:00,